createdAt,value
2023-04-14T00:01:58.249Z,4.15
2023-04-14T00:06:15.523Z,4.78
2023-04-14T00:10:32.783Z,4.60
2023-04-14T00:14:50.302Z,4.43
2023-04-14T00:19:07.530Z,4.55
2023-04-14T00:23:24.856Z,4.20
2023-04-14T00:27:42.420Z,4.28
2023-04-14T00:31:59.717Z,4.32
2023-04-14T00:36:16.948Z,4.72
2023-04-14T00:40:34.395Z,4.78
2023-04-14T00:44:51.650Z,5.10
2023-04-14T00:49:09.550Z,5.13
2023-04-14T00:53:27.823Z,4.93
2023-04-14T00:57:45.852Z,5.05
2023-04-14T01:02:03.609Z,4.80
2023-04-14T01:06:20.993Z,4.57
2023-04-14T01:11:22.497Z,5.40
2023-04-14T01:16:00.614Z,4.72
2023-04-14T01:20:22.968Z,4.72
2023-04-14T01:24:43.638Z,4.63
2023-04-14T01:29:21.659Z,5.32
2023-04-14T01:33:41.564Z,5.50
2023-04-14T01:38:06.873Z,5.00
2023-04-14T01:42:30.556Z,5.75
2023-04-14T01:46:50.267Z,5.60
2023-04-14T01:51:08.823Z,6.57
2023-04-14T01:59:45.206Z,6.35
2023-04-14T02:04:03.900Z,5.72
2023-04-14T02:08:25.965Z,6.00
2023-04-14T02:12:44.189Z,5.68
2023-04-14T02:17:02.949Z,5.90
2023-04-14T02:21:24.451Z,5.60
2023-04-14T02:25:51.861Z,5.82
2023-04-14T02:30:14.729Z,5.88
2023-04-14T02:34:38.460Z,5.88
2023-04-14T02:39:00.795Z,6.32
2023-04-14T02:43:24.721Z,5.65
2023-04-14T02:47:46.597Z,6.40
2023-04-14T02:52:09.916Z,6.60
2023-04-14T02:56:27.670Z,6.25
2023-04-14T03:00:47.028Z,6.97
2023-04-14T03:05:06.686Z,6.85
2023-04-14T03:09:25.457Z,6.40
2023-04-14T03:13:45.031Z,6.57
2023-04-14T03:18:03.222Z,6.45
2023-04-14T03:22:22.216Z,7.05
2023-04-14T03:26:41.650Z,5.88
2023-04-14T03:31:04.023Z,6.82
2023-04-14T03:35:22.974Z,7.63
2023-04-14T03:39:41.608Z,7.10
2023-04-14T03:43:59.378Z,7.10
2023-04-14T03:48:19.373Z,6.77
2023-04-14T03:52:40.318Z,6.82
2023-04-14T03:57:01.111Z,7.20
2023-04-14T04:01:19.732Z,6.85
2023-04-14T04:05:40.920Z,7.05
2023-04-14T04:09:58.542Z,7.03
2023-04-14T04:14:20.388Z,6.38
2023-04-14T04:18:39.415Z,6.50
2023-04-14T04:23:01.284Z,8.25
2023-04-14T04:27:27.672Z,6.45
2023-04-14T04:31:45.971Z,6.35
2023-04-14T04:36:05.341Z,7.85
2023-04-14T04:40:22.612Z,7.03
2023-04-14T04:44:40.447Z,6.68
2023-04-14T04:48:58.569Z,6.70
2023-04-14T04:53:16.073Z,6.80
2023-04-14T04:57:33.380Z,6.80
2023-04-14T05:01:51.141Z,6.78
2023-04-14T05:06:08.672Z,6.57
2023-04-14T05:10:26.026Z,7.28
2023-04-14T05:14:43.453Z,7.22
2023-04-14T05:19:02.157Z,7.40
2023-04-14T05:23:19.966Z,7.30
2023-04-14T05:27:37.236Z,7.70
2023-04-14T05:31:54.579Z,6.72
2023-04-14T05:36:11.996Z,6.50
2023-04-14T05:40:30.191Z,7.28
2023-04-14T05:44:47.400Z,8.50
2023-04-14T05:49:05.040Z,7.05
2023-04-14T05:53:22.314Z,7.97
2023-04-14T05:57:39.787Z,7.95
2023-04-14T06:01:57.217Z,9.48
2023-04-14T06:06:15.110Z,7.53
2023-04-14T06:10:32.329Z,8.23
2023-04-14T06:14:49.655Z,8.20
2023-04-14T06:19:06.908Z,8.70
2023-04-14T06:23:26.625Z,7.88
2023-04-14T06:27:43.980Z,8.05
2023-04-14T06:32:01.282Z,8.27
2023-04-14T06:36:18.518Z,8.43
2023-04-14T06:40:35.741Z,8.82
2023-04-14T06:44:53.153Z,8.65
2023-04-14T06:49:10.608Z,9.93
2023-04-14T06:53:28.140Z,10.40
2023-04-14T06:57:45.427Z,10.07
2023-04-14T07:02:02.990Z,11.90
2023-04-14T07:06:20.529Z,10.55
2023-04-14T07:10:38.116Z,10.68
2023-04-14T07:14:55.789Z,10.60
2023-04-14T07:19:13.242Z,11.35
2023-04-14T07:23:30.840Z,10.57
2023-04-14T07:28:02.056Z,12.32
2023-04-14T07:32:21.818Z,12.60
2023-04-14T07:36:40.177Z,13.30
2023-04-14T07:40:57.609Z,15.00
2023-04-14T07:45:14.806Z,17.77
2023-04-14T07:49:33.665Z,17.75
2023-04-14T07:53:53.262Z,17.90
2023-04-14T07:58:15.176Z,18.45
2023-04-14T08:02:32.979Z,18.30
2023-04-14T08:06:50.586Z,16.08
2023-04-14T08:11:07.861Z,15.55
2023-04-14T08:15:25.395Z,17.55
2023-04-14T08:19:42.538Z,17.63
2023-04-14T08:23:59.917Z,18.25
2023-04-14T08:28:17.488Z,20.65
2023-04-14T08:32:34.825Z,18.63
2023-04-14T08:36:52.957Z,18.58
2023-04-14T08:41:13.335Z,20.30
2023-04-14T08:45:32.641Z,19.63
2023-04-14T08:49:55.201Z,20.75
2023-04-14T08:54:12.934Z,21.20
2023-04-14T08:58:31.469Z,21.60
2023-04-14T09:02:50.876Z,21.17
2023-04-14T09:07:09.087Z,19.70
2023-04-14T09:11:27.896Z,19.83
2023-04-14T09:15:45.273Z,20.42
2023-04-14T09:20:35.962Z,18.30
2023-04-14T09:24:39.949Z,20.50
2023-04-14T09:28:57.567Z,19.58
2023-04-14T09:37:46.514Z,19.55
2023-04-14T09:42:04.746Z,18.20
2023-04-14T09:46:22.524Z,18.95
2023-04-14T09:51:00.974Z,19.83
2023-04-14T09:55:18.234Z,21.45
2023-04-14T09:59:39.105Z,22.35
2023-04-14T10:03:56.464Z,17.08
2023-04-14T10:08:14.038Z,14.52
2023-04-14T10:12:31.470Z,14.50
2023-04-14T10:16:48.745Z,14.55
2023-04-14T10:21:07.498Z,11.48
2023-04-14T10:29:43.546Z,11.80
2023-04-14T10:34:11.605Z,11.73
2023-04-14T10:38:42.535Z,8.68
2023-04-14T10:42:59.805Z,9.40
2023-04-14T10:47:25.201Z,8.93
2023-04-14T10:51:44.818Z,8.77
2023-04-14T10:56:04.152Z,6.47
2023-04-14T11:00:29.558Z,7.68
2023-04-14T11:05:10.646Z,7.30
2023-04-14T11:09:37.535Z,6.95
2023-04-14T11:14:13.100Z,9.27
2023-04-14T11:18:30.327Z,8.65
2023-04-14T11:22:49.300Z,9.23
2023-04-14T11:27:11.626Z,8.43
2023-04-14T11:31:28.861Z,9.00
2023-04-14T11:35:46.307Z,7.65
2023-04-14T11:40:05.634Z,7.70
2023-04-14T11:44:23.096Z,6.20
2023-04-14T11:48:40.372Z,6.88
2023-04-14T11:52:59.613Z,6.60
2023-04-14T11:57:17.850Z,5.20
2023-04-14T12:01:35.267Z,5.40
2023-04-14T12:05:57.506Z,5.40
2023-04-14T12:10:15.139Z,4.78
2023-04-14T12:14:32.433Z,4.82
2023-04-14T12:18:49.809Z,4.18
2023-04-14T12:23:07.351Z,3.95
2023-04-14T12:27:26.592Z,3.65
2023-04-14T12:31:44.452Z,4.43
2023-04-14T12:36:13.329Z,4.37
2023-04-14T12:40:42.803Z,4.20
2023-04-14T12:45:02.466Z,3.88
2023-04-14T12:49:53.806Z,4.15
2023-04-14T12:54:10.947Z,3.60
2023-04-14T12:58:29.704Z,4.65
2023-04-14T13:07:04.566Z,4.20
2023-04-14T13:11:23.614Z,4.30
2023-04-14T13:16:13.620Z,4.57
2023-04-14T13:20:18.101Z,4.03
2023-04-14T13:24:36.192Z,4.50
2023-04-14T13:28:53.330Z,4.07
2023-04-14T13:33:11.320Z,3.00
2023-04-14T13:37:28.944Z,2.80
2023-04-14T13:41:46.248Z,2.90
2023-04-14T13:46:03.507Z,2.92
2023-04-14T13:50:21.112Z,2.65
2023-04-14T13:54:38.750Z,2.78
2023-04-14T13:58:55.916Z,3.28
2023-04-14T14:03:13.335Z,3.53
2023-04-14T14:07:30.660Z,3.85
2023-04-14T14:11:47.954Z,3.15
2023-04-14T14:16:09.380Z,3.67
2023-04-14T14:20:26.886Z,3.30
2023-04-14T14:24:45.166Z,2.97
2023-04-14T14:29:02.843Z,3.10
2023-04-14T14:33:20.746Z,2.58
2023-04-14T14:37:38.018Z,2.40
2023-04-14T14:41:55.236Z,2.25
2023-04-14T14:46:12.445Z,2.88
2023-04-14T14:50:29.687Z,2.42
2023-04-14T14:54:46.804Z,2.15
2023-04-14T14:59:04.085Z,2.10
2023-04-14T15:03:21.575Z,2.30
2023-04-14T15:07:39.590Z,2.20
2023-04-14T15:11:57.082Z,2.20
2023-04-14T15:16:14.234Z,2.33
2023-04-14T15:20:31.538Z,5.80
2023-04-14T15:24:48.706Z,3.97
2023-04-14T15:29:06.163Z,2.90
2023-04-14T15:33:23.828Z,3.10
2023-04-14T15:37:41.188Z,2.80
2023-04-14T15:41:58.463Z,2.60
2023-04-14T15:46:15.764Z,4.00
2023-04-14T15:50:32.935Z,4.40
2023-04-14T15:54:50.400Z,4.50
2023-04-14T15:59:07.526Z,6.68
2023-04-14T16:03:24.893Z,6.57
2023-04-14T16:07:43.770Z,11.82
2023-04-14T16:12:01.349Z,9.43
2023-04-14T16:16:18.688Z,7.88
2023-04-14T16:20:36.011Z,6.13
2023-04-14T16:24:53.143Z,5.70
2023-04-14T16:29:10.885Z,5.28
2023-04-14T16:33:28.413Z,5.00
2023-04-14T16:37:45.763Z,6.68
2023-04-14T16:42:04.105Z,5.93
2023-04-14T16:46:21.844Z,4.72
2023-04-14T16:50:40.554Z,5.72
2023-04-14T16:54:58.740Z,5.18
2023-04-14T16:59:16.493Z,5.60
2023-04-14T17:03:34.279Z,6.20
2023-04-14T17:07:51.531Z,6.20
2023-04-14T17:12:08.768Z,6.82
2023-04-14T17:16:25.927Z,6.32
2023-04-14T17:20:43.256Z,7.53
2023-04-14T17:25:00.906Z,6.85
2023-04-14T17:29:18.007Z,7.88
2023-04-14T17:33:35.144Z,8.63
2023-04-14T17:37:52.835Z,7.72
2023-04-14T17:42:11.423Z,8.67
2023-04-14T17:46:33.854Z,7.70
2023-04-14T17:50:51.110Z,7.60
2023-04-14T17:55:08.927Z,8.02
2023-04-14T17:59:26.259Z,8.13
2023-04-14T18:03:43.754Z,7.75
2023-04-14T18:08:01.248Z,8.40
2023-04-14T18:12:18.670Z,8.55
2023-04-14T18:16:35.861Z,8.93
2023-04-14T18:20:53.098Z,7.68
2023-04-14T18:25:10.347Z,8.40
2023-04-14T18:29:27.853Z,9.18
2023-04-14T18:33:45.105Z,8.27
2023-04-14T18:38:02.333Z,6.72
2023-04-14T18:42:19.511Z,9.02
2023-04-14T18:46:37.851Z,9.52
2023-04-14T18:51:01.867Z,10.45
2023-04-14T18:55:19.465Z,8.27
2023-04-14T18:59:36.685Z,7.47
2023-04-14T19:03:56.516Z,10.65
2023-04-14T19:08:13.765Z,11.10
2023-04-14T19:12:32.290Z,10.40
2023-04-14T19:16:50.219Z,12.88
2023-04-14T19:21:08.984Z,12.17
2023-04-14T19:25:26.469Z,12.02
2023-04-14T19:29:43.805Z,11.70
2023-04-14T19:34:01.139Z,10.80
2023-04-14T19:38:19.491Z,10.55
2023-04-14T19:42:37.040Z,12.15
2023-04-14T19:46:54.347Z,13.43
2023-04-14T19:51:11.603Z,13.73
2023-04-14T19:55:29.985Z,11.82
2023-04-14T19:59:47.258Z,13.65
2023-04-14T20:04:07.703Z,13.05
2023-04-14T20:08:30.842Z,12.65
2023-04-14T20:12:49.221Z,13.18
2023-04-14T20:17:06.518Z,12.70
2023-04-14T20:21:24.189Z,13.55
2023-04-14T20:25:42.901Z,14.00
2023-04-14T20:30:01.154Z,13.40
2023-04-14T20:34:18.363Z,13.30
2023-04-14T20:38:35.575Z,12.52
2023-04-14T20:42:52.668Z,14.20
2023-04-14T20:47:10.579Z,13.63
2023-04-14T20:51:27.889Z,12.77
2023-04-14T20:55:45.101Z,14.95
2023-04-14T21:00:02.293Z,13.10
2023-04-14T21:04:19.506Z,14.93
2023-04-14T21:08:36.643Z,14.65
2023-04-14T21:14:57.866Z,14.95
2023-04-14T21:17:37.140Z,13.45
2023-04-14T21:21:54.571Z,13.82
2023-04-14T21:26:13.343Z,13.73
2023-04-14T21:30:31.492Z,14.95
2023-04-14T21:34:48.788Z,15.52
2023-04-14T21:39:05.939Z,15.48
2023-04-14T21:43:23.174Z,17.10
2023-04-14T21:47:40.361Z,17.85
2023-04-14T21:51:57.503Z,20.15
2023-04-14T21:56:14.835Z,22.10
2023-04-14T22:00:31.986Z,22.17
2023-04-14T22:04:49.189Z,20.33
2023-04-14T22:09:06.749Z,18.70
2023-04-14T22:13:24.690Z,16.42
2023-04-14T22:17:41.897Z,14.83
2023-04-14T22:21:59.936Z,15.52
2023-04-14T22:26:17.037Z,17.03
2023-04-14T22:30:35.155Z,19.20
2023-04-14T22:34:52.857Z,19.10
2023-04-14T22:39:10.067Z,17.35
2023-04-14T22:43:27.446Z,18.17
2023-04-14T22:47:44.632Z,17.02
2023-04-14T22:52:01.812Z,18.35
2023-04-14T22:56:19.116Z,19.70
2023-04-14T23:00:36.249Z,19.45
2023-04-14T23:04:53.465Z,19.00
2023-04-14T23:09:10.803Z,18.70
2023-04-14T23:13:28.074Z,18.38
2023-04-14T23:17:45.252Z,17.20
2023-04-14T23:22:02.680Z,16.45
2023-04-14T23:26:21.376Z,14.02
2023-04-14T23:30:38.721Z,14.45
2023-04-14T23:34:56.374Z,14.35
2023-04-14T23:39:13.564Z,13.80
2023-04-14T23:43:30.762Z,12.95
2023-04-14T23:47:48.317Z,12.20
2023-04-14T23:52:05.657Z,13.13
2023-04-14T23:56:22.897Z,12.75
